Etusivu
METAR-TAF:

METAR-TAF

Lentoasemat :

Tukholma-Arlanda, Ruotsi

Arlandan kansainvälinen lentoasema

Leveyspiiri: 59-39N, Pituuspiiri: 017-57E, korkeus merenpinnasta: 38 m

Tämänhetkinen sää

Tämä raportti tehtiin 21 minuuttia sitten, kello 14.20 UTC
Tuuli 5 kn kaakosta
Lämpötila 19°C
Kosteus 46%
Ilmanpaine 1018 hPa
Näkyvyys 10 km tai enemmän
ei pilviä alle 1500 m:ssä eikä cumulonimbus-pilviä

METAR: ESSA 211420Z 14005KT CAVOK 19/07 Q1018 NOSIG

Aika: 16:41 (14:41 UTC)

Sääennuste

Tämä raportti tehtiin 3 tuntia ja 11 minuuttia sitten, kello 11.30 UTC
Ennuste voimassa 21. päivästä klo 12 UTC - 22. päivään klo 12 UTC
Tuuli 10 kn idästä
Näkyvyys 10 km tai enemmän
ei pilviä alle 1500 m:ssä eikä cumulonimbus-pilviä
Tulossa
21. päivästä klo 12 UTC - 21. päivään klo 14 UTC
Tuuli 6 kn etelästä/kaakosta

TAF: ESSA 211130Z 2112/2212 08010KT CAVOK BECMG 2112/2114 15006KT

Säähavainnot ja -ennusteet yli 4000 lentoasemalta (METAR- ja TAF-raportit).

Käytössä olevat sääasemat on merkitty karttaan keltaisilla ja punaisilla pisteillä.

Aseta hiiri pisteen päälle nähdäksesi sääaseman nimen.

Klikkaa sitten nähdäksesi säähavainnot ja -ennusteet.

Kartan vaihtaminen: klikkaa mustalla rastilla varustettuja vihreitä pisteitä, niin voit zoomata sisään; viivalla varustettua vihreää pistettä, niin voit zoomata ulos tai vihreitä nuolia, niin pääset viereisille kartoille.


METAR-TAF: